sensor_id;sensor_type;location;lat;lon;timestamp;P1;durP1;ratioP1;P2;durP2;ratioP2
6531;SDS011;3299;42.004;24.868;2023-04-29T00:00:37;4.10;;;2.60;;
6531;SDS011;3299;42.004;24.868;2023-04-29T00:03:02;2.33;;;2.22;;
6531;SDS011;3299;42.004;24.868;2023-04-29T00:05:28;3.85;;;2.60;;
6531;SDS011;3299;42.004;24.868;2023-04-29T00:07:53;2.88;;;2.55;;
6531;SDS011;3299;42.004;24.868;2023-04-29T00:10:18;3.13;;;2.55;;
6531;SDS011;3299;42.004;24.868;2023-04-29T00:12:44;3.15;;;2.30;;
6531;SDS011;3299;42.004;24.868;2023-04-29T00:15:09;2.90;;;2.60;;
6531;SDS011;3299;42.004;24.868;2023-04-29T00:17:35;2.60;;;2.40;;
6531;SDS011;3299;42.004;24.868;2023-04-29T00:20:01;3.60;;;3.10;;
6531;SDS011;3299;42.004;24.868;2023-04-29T00:22:27;3.30;;;2.72;;
6531;SDS011;3299;42.004;24.868;2023-04-29T00:24:52;3.15;;;2.78;;
6531;SDS011;3299;42.004;24.868;2023-04-29T00:27:18;2.80;;;2.60;;
6531;SDS011;3299;42.004;24.868;2023-04-29T00:29:43;2.75;;;2.55;;
6531;SDS011;3299;42.004;24.868;2023-04-29T00:32:09;3.33;;;2.55;;
6531;SDS011;3299;42.004;24.868;2023-04-29T00:34:35;3.17;;;2.88;;
6531;SDS011;3299;42.004;24.868;2023-04-29T00:37:00;2.60;;;2.40;;
6531;SDS011;3299;42.004;24.868;2023-04-29T00:39:26;2.80;;;2.60;;
6531;SDS011;3299;42.004;24.868;2023-04-29T00:41:51;3.40;;;3.10;;
6531;SDS011;3299;42.004;24.868;2023-04-29T00:44:17;3.30;;;2.78;;
6531;SDS011;3299;42.004;24.868;2023-04-29T00:46:43;3.03;;;2.63;;
6531;SDS011;3299;42.004;24.868;2023-04-29T00:49:09;4.63;;;2.85;;
6531;SDS011;3299;42.004;24.868;2023-04-29T00:51:37;3.25;;;2.85;;
6531;SDS011;3299;42.004;24.868;2023-04-29T00:54:05;12.23;;;4.28;;
6531;SDS011;3299;42.004;24.868;2023-04-29T00:56:33;3.22;;;2.92;;
6531;SDS011;3299;42.004;24.868;2023-04-29T00:59:01;3.15;;;2.90;;
6531;SDS011;3299;42.004;24.868;2023-04-29T01:01:28;3.47;;;3.15;;
6531;SDS011;3299;42.004;24.868;2023-04-29T01:03:55;3.67;;;3.00;;
6531;SDS011;3299;42.004;24.868;2023-04-29T01:15:21;6.00;;;3.75;;
6531;SDS011;3299;42.004;24.868;2023-04-29T01:17:55;4.40;;;4.03;;
6531;SDS011;3299;42.004;24.868;2023-04-29T01:20:27;4.55;;;4.15;;
6531;SDS011;3299;42.004;24.868;2023-04-29T01:22:53;4.30;;;3.92;;
6531;SDS011;3299;42.004;24.868;2023-04-29T01:25:18;5.25;;;4.45;;
6531;SDS011;3299;42.004;24.868;2023-04-29T01:38:42;6.55;;;5.32;;
6531;SDS011;3299;42.004;24.868;2023-04-29T01:43:51;12.65;;;7.15;;
6531;SDS011;3299;42.004;24.868;2023-04-29T01:46:20;12.95;;;6.63;;
6531;SDS011;3299;42.004;24.868;2023-04-29T01:48:45;12.98;;;7.78;;
6531;SDS011;3299;42.004;24.868;2023-04-29T01:51:11;19.23;;;8.20;;
6531;SDS011;3299;42.004;24.868;2023-04-29T01:53:37;9.45;;;6.28;;
6531;SDS011;3299;42.004;24.868;2023-04-29T01:56:05;3.50;;;3.03;;
6531;SDS011;3299;42.004;24.868;2023-04-29T01:58:31;3.13;;;2.90;;
6531;SDS011;3299;42.004;24.868;2023-04-29T02:00:57;2.95;;;2.75;;
6531;SDS011;3299;42.004;24.868;2023-04-29T02:03:22;2.65;;;2.45;;
6531;SDS011;3299;42.004;24.868;2023-04-29T02:05:47;4.05;;;2.70;;
6531;SDS011;3299;42.004;24.868;2023-04-29T02:08:14;4.03;;;3.20;;
6531;SDS011;3299;42.004;24.868;2023-04-29T02:10:40;5.30;;;3.10;;
6531;SDS011;3299;42.004;24.868;2023-04-29T02:13:06;5.45;;;4.45;;
6531;SDS011;3299;42.004;24.868;2023-04-29T02:15:31;8.05;;;6.30;;
6531;SDS011;3299;42.004;24.868;2023-04-29T02:17:57;7.63;;;6.28;;
6531;SDS011;3299;42.004;24.868;2023-04-29T02:20:22;12.05;;;6.50;;
6531;SDS011;3299;42.004;24.868;2023-04-29T02:22:48;8.30;;;6.65;;
6531;SDS011;3299;42.004;24.868;2023-04-29T02:25:13;10.80;;;5.00;;
6531;SDS011;3299;42.004;24.868;2023-04-29T02:27:39;9.05;;;4.68;;
6531;SDS011;3299;42.004;24.868;2023-04-29T02:30:04;11.93;;;4.90;;
6531;SDS011;3299;42.004;24.868;2023-04-29T02:32:30;7.25;;;6.25;;
6531;SDS011;3299;42.004;24.868;2023-04-29T02:34:56;8.82;;;5.60;;
6531;SDS011;3299;42.004;24.868;2023-04-29T02:37:22;6.95;;;5.50;;
6531;SDS011;3299;42.004;24.868;2023-04-29T02:39:47;7.13;;;6.00;;
6531;SDS011;3299;42.004;24.868;2023-04-29T02:42:13;3.67;;;3.38;;
6531;SDS011;3299;42.004;24.868;2023-04-29T02:44:38;3.13;;;2.70;;
6531;SDS011;3299;42.004;24.868;2023-04-29T02:47:05;2.58;;;2.38;;
6531;SDS011;3299;42.004;24.868;2023-04-29T02:49:30;8.80;;;3.33;;
6531;SDS011;3299;42.004;24.868;2023-04-29T02:51:56;3.08;;;2.78;;
6531;SDS011;3299;42.004;24.868;2023-04-29T02:54:22;3.50;;;3.05;;
6531;SDS011;3299;42.004;24.868;2023-04-29T02:56:48;3.58;;;2.80;;
6531;SDS011;3299;42.004;24.868;2023-04-29T02:59:13;3.25;;;2.83;;
6531;SDS011;3299;42.004;24.868;2023-04-29T03:01:39;3.00;;;2.80;;
6531;SDS011;3299;42.004;24.868;2023-04-29T03:04:04;6.35;;;2.60;;
6531;SDS011;3299;42.004;24.868;2023-04-29T03:06:30;4.45;;;3.35;;
6531;SDS011;3299;42.004;24.868;2023-04-29T03:08:56;3.38;;;3.08;;
6531;SDS011;3299;42.004;24.868;2023-04-29T03:11:22;4.85;;;2.88;;
6531;SDS011;3299;42.004;24.868;2023-04-29T03:13:48;4.35;;;2.90;;
6531;SDS011;3299;42.004;24.868;2023-04-29T03:16:14;4.32;;;3.70;;
6531;SDS011;3299;42.004;24.868;2023-04-29T03:18:41;8.93;;;5.13;;
6531;SDS011;3299;42.004;24.868;2023-04-29T03:21:09;8.73;;;4.85;;
6531;SDS011;3299;42.004;24.868;2023-04-29T03:23:34;11.23;;;5.95;;
6531;SDS011;3299;42.004;24.868;2023-04-29T03:26:00;6.63;;;5.20;;
6531;SDS011;3299;42.004;24.868;2023-04-29T03:28:25;4.75;;;3.95;;
6531;SDS011;3299;42.004;24.868;2023-04-29T03:30:51;5.95;;;3.03;;
6531;SDS011;3299;42.004;24.868;2023-04-29T03:33:17;3.30;;;2.85;;
6531;SDS011;3299;42.004;24.868;2023-04-29T03:35:42;9.05;;;3.22;;
6531;SDS011;3299;42.004;24.868;2023-04-29T03:38:09;4.20;;;2.85;;
6531;SDS011;3299;42.004;24.868;2023-04-29T03:40:36;3.13;;;2.83;;
6531;SDS011;3299;42.004;24.868;2023-04-29T03:43:01;4.32;;;2.70;;
6531;SDS011;3299;42.004;24.868;2023-04-29T03:45:27;3.53;;;3.25;;
6531;SDS011;3299;42.004;24.868;2023-04-29T03:47:53;4.13;;;3.72;;
6531;SDS011;3299;42.004;24.868;2023-04-29T03:50:18;3.88;;;3.55;;
6531;SDS011;3299;42.004;24.868;2023-04-29T03:52:44;3.28;;;2.90;;
6531;SDS011;3299;42.004;24.868;2023-04-29T03:55:10;3.63;;;3.28;;
6531;SDS011;3299;42.004;24.868;2023-04-29T03:57:36;5.80;;;2.88;;
6531;SDS011;3299;42.004;24.868;2023-04-29T04:00:02;4.03;;;2.72;;
6531;SDS011;3299;42.004;24.868;2023-04-29T04:02:28;3.78;;;3.33;;
6531;SDS011;3299;42.004;24.868;2023-04-29T04:04:54;3.28;;;2.92;;
6531;SDS011;3299;42.004;24.868;2023-04-29T04:07:19;3.58;;;3.20;;
6531;SDS011;3299;42.004;24.868;2023-04-29T04:09:45;2.33;;;2.20;;
6531;SDS011;3299;42.004;24.868;2023-04-29T04:12:10;2.95;;;2.75;;
6531;SDS011;3299;42.004;24.868;2023-04-29T04:14:36;3.83;;;2.75;;
6531;SDS011;3299;42.004;24.868;2023-04-29T04:17:01;2.92;;;2.72;;
6531;SDS011;3299;42.004;24.868;2023-04-29T04:19:26;3.00;;;2.70;;
6531;SDS011;3299;42.004;24.868;2023-04-29T04:21:53;3.08;;;2.80;;
6531;SDS011;3299;42.004;24.868;2023-04-29T04:24:19;3.78;;;3.00;;
6531;SDS011;3299;42.004;24.868;2023-04-29T04:26:44;3.90;;;2.78;;
6531;SDS011;3299;42.004;24.868;2023-04-29T04:29:10;2.58;;;2.38;;
6531;SDS011;3299;42.004;24.868;2023-04-29T04:31:35;2.85;;;2.60;;
6531;SDS011;3299;42.004;24.868;2023-04-29T04:34:01;4.30;;;2.92;;
6531;SDS011;3299;42.004;24.868;2023-04-29T04:36:26;2.72;;;2.53;;
6531;SDS011;3299;42.004;24.868;2023-04-29T04:38:52;3.20;;;3.00;;
6531;SDS011;3299;42.004;24.868;2023-04-29T04:41:17;5.53;;;3.10;;
6531;SDS011;3299;42.004;24.868;2023-04-29T04:43:43;2.88;;;2.63;;
6531;SDS011;3299;42.004;24.868;2023-04-29T04:46:09;3.00;;;2.80;;
6531;SDS011;3299;42.004;24.868;2023-04-29T04:48:35;4.78;;;2.72;;
6531;SDS011;3299;42.004;24.868;2023-04-29T04:51:10;3.30;;;3.00;;
6531;SDS011;3299;42.004;24.868;2023-04-29T04:53:37;2.80;;;2.40;;
6531;SDS011;3299;42.004;24.868;2023-04-29T04:56:03;2.90;;;2.33;;
6531;SDS011;3299;42.004;24.868;2023-04-29T04:58:29;5.00;;;3.30;;
6531;SDS011;3299;42.004;24.868;2023-04-29T05:00:58;4.03;;;2.60;;
6531;SDS011;3299;42.004;24.868;2023-04-29T05:03:23;3.65;;;2.90;;
6531;SDS011;3299;42.004;24.868;2023-04-29T05:05:52;4.40;;;2.75;;
6531;SDS011;3299;42.004;24.868;2023-04-29T05:08:21;4.63;;;3.50;;
6531;SDS011;3299;42.004;24.868;2023-04-29T05:10:47;5.82;;;4.05;;
6531;SDS011;3299;42.004;24.868;2023-04-29T05:13:12;6.32;;;4.00;;
6531;SDS011;3299;42.004;24.868;2023-04-29T05:15:38;6.78;;;4.30;;
6531;SDS011;3299;42.004;24.868;2023-04-29T05:18:03;4.55;;;4.15;;
6531;SDS011;3299;42.004;24.868;2023-04-29T05:20:28;6.20;;;4.00;;
6531;SDS011;3299;42.004;24.868;2023-04-29T05:22:54;6.68;;;4.00;;
6531;SDS011;3299;42.004;24.868;2023-04-29T05:25:19;7.75;;;4.43;;
6531;SDS011;3299;42.004;24.868;2023-04-29T05:27:45;7.47;;;4.43;;
6531;SDS011;3299;42.004;24.868;2023-04-29T05:30:10;7.65;;;4.40;;
6531;SDS011;3299;42.004;24.868;2023-04-29T05:32:36;7.63;;;4.50;;
6531;SDS011;3299;42.004;24.868;2023-04-29T05:35:01;7.97;;;4.22;;
6531;SDS011;3299;42.004;24.868;2023-04-29T05:37:27;12.52;;;4.93;;
6531;SDS011;3299;42.004;24.868;2023-04-29T05:39:55;10.60;;;5.32;;
6531;SDS011;3299;42.004;24.868;2023-04-29T05:42:21;12.90;;;5.25;;
6531;SDS011;3299;42.004;24.868;2023-04-29T05:44:47;8.60;;;4.97;;
6531;SDS011;3299;42.004;24.868;2023-04-29T05:47:12;12.15;;;6.10;;
6531;SDS011;3299;42.004;24.868;2023-04-29T05:49:38;8.35;;;5.05;;
6531;SDS011;3299;42.004;24.868;2023-04-29T05:52:03;6.97;;;3.42;;
6531;SDS011;3299;42.004;24.868;2023-04-29T05:54:31;6.05;;;3.22;;
6531;SDS011;3299;42.004;24.868;2023-04-29T05:56:57;4.32;;;2.90;;
6531;SDS011;3299;42.004;24.868;2023-04-29T05:59:30;2.75;;;2.55;;
6531;SDS011;3299;42.004;24.868;2023-04-29T06:01:56;5.90;;;2.70;;
6531;SDS011;3299;42.004;24.868;2023-04-29T06:04:22;3.42;;;2.60;;
6531;SDS011;3299;42.004;24.868;2023-04-29T06:06:48;5.18;;;2.78;;
6531;SDS011;3299;42.004;24.868;2023-04-29T06:09:15;6.63;;;3.10;;
6531;SDS011;3299;42.004;24.868;2023-04-29T06:11:40;3.42;;;3.13;;
6531;SDS011;3299;42.004;24.868;2023-04-29T06:14:06;2.78;;;2.58;;
6531;SDS011;3299;42.004;24.868;2023-04-29T06:16:31;3.10;;;2.60;;
6531;SDS011;3299;42.004;24.868;2023-04-29T06:18:57;3.53;;;2.63;;
6531;SDS011;3299;42.004;24.868;2023-04-29T06:21:22;3.30;;;2.40;;
6531;SDS011;3299;42.004;24.868;2023-04-29T06:23:48;3.63;;;2.80;;
6531;SDS011;3299;42.004;24.868;2023-04-29T06:26:13;6.90;;;3.45;;
6531;SDS011;3299;42.004;24.868;2023-04-29T06:28:39;9.23;;;3.30;;
6531;SDS011;3299;42.004;24.868;2023-04-29T06:31:04;5.63;;;2.95;;
6531;SDS011;3299;42.004;24.868;2023-04-29T06:33:29;5.50;;;2.38;;
6531;SDS011;3299;42.004;24.868;2023-04-29T06:35:57;3.10;;;2.15;;
6531;SDS011;3299;42.004;24.868;2023-04-29T06:38:22;4.45;;;2.33;;
6531;SDS011;3299;42.004;24.868;2023-04-29T06:40:48;4.35;;;2.67;;
6531;SDS011;3299;42.004;24.868;2023-04-29T06:43:14;3.88;;;2.78;;
6531;SDS011;3299;42.004;24.868;2023-04-29T06:45:39;5.78;;;3.28;;
6531;SDS011;3299;42.004;24.868;2023-04-29T06:48:05;4.53;;;3.28;;
6531;SDS011;3299;42.004;24.868;2023-04-29T06:50:30;6.35;;;3.10;;
6531;SDS011;3299;42.004;24.868;2023-04-29T06:52:56;4.22;;;2.88;;
6531;SDS011;3299;42.004;24.868;2023-04-29T06:55:21;5.40;;;3.47;;
6531;SDS011;3299;42.004;24.868;2023-04-29T06:57:46;7.05;;;3.67;;
6531;SDS011;3299;42.004;24.868;2023-04-29T07:00:12;5.30;;;3.47;;
6531;SDS011;3299;42.004;24.868;2023-04-29T07:02:39;4.55;;;3.80;;
6531;SDS011;3299;42.004;24.868;2023-04-29T07:05:04;8.45;;;3.50;;
6531;SDS011;3299;42.004;24.868;2023-04-29T07:07:30;5.18;;;3.50;;
6531;SDS011;3299;42.004;24.868;2023-04-29T07:09:55;5.20;;;3.55;;
6531;SDS011;3299;42.004;24.868;2023-04-29T07:12:21;4.53;;;4.13;;
6531;SDS011;3299;42.004;24.868;2023-04-29T07:14:46;7.50;;;4.32;;
6531;SDS011;3299;42.004;24.868;2023-04-29T07:17:11;9.25;;;4.15;;
6531;SDS011;3299;42.004;24.868;2023-04-29T07:19:37;6.57;;;3.88;;
6531;SDS011;3299;42.004;24.868;2023-04-29T07:22:02;10.05;;;4.70;;
6531;SDS011;3299;42.004;24.868;2023-04-29T07:24:28;8.18;;;4.70;;
6531;SDS011;3299;42.004;24.868;2023-04-29T07:26:53;13.93;;;4.32;;
6531;SDS011;3299;42.004;24.868;2023-04-29T07:29:19;8.65;;;4.30;;
6531;SDS011;3299;42.004;24.868;2023-04-29T07:31:44;5.03;;;3.65;;
6531;SDS011;3299;42.004;24.868;2023-04-29T07:34:10;8.48;;;4.00;;
6531;SDS011;3299;42.004;24.868;2023-04-29T07:36:35;9.35;;;4.18;;
6531;SDS011;3299;42.004;24.868;2023-04-29T07:39:01;6.82;;;4.45;;
6531;SDS011;3299;42.004;24.868;2023-04-29T07:41:26;8.27;;;4.20;;
6531;SDS011;3299;42.004;24.868;2023-04-29T07:43:52;6.18;;;4.18;;
6531;SDS011;3299;42.004;24.868;2023-04-29T07:46:18;6.40;;;4.03;;
6531;SDS011;3299;42.004;24.868;2023-04-29T07:48:43;8.93;;;4.35;;
6531;SDS011;3299;42.004;24.868;2023-04-29T07:51:13;10.23;;;4.50;;
6531;SDS011;3299;42.004;24.868;2023-04-29T07:53:39;9.77;;;4.15;;
6531;SDS011;3299;42.004;24.868;2023-04-29T07:56:06;7.85;;;4.10;;
6531;SDS011;3299;42.004;24.868;2023-04-29T07:58:32;14.30;;;4.47;;
6531;SDS011;3299;42.004;24.868;2023-04-29T08:01:03;10.50;;;4.25;;
6531;SDS011;3299;42.004;24.868;2023-04-29T08:03:30;12.27;;;5.05;;
6531;SDS011;3299;42.004;24.868;2023-04-29T08:05:59;9.15;;;4.70;;
6531;SDS011;3299;42.004;24.868;2023-04-29T08:08:25;6.28;;;4.35;;
6531;SDS011;3299;42.004;24.868;2023-04-29T08:10:50;11.43;;;4.60;;
6531;SDS011;3299;42.004;24.868;2023-04-29T08:13:16;6.07;;;4.88;;
6531;SDS011;3299;42.004;24.868;2023-04-29T08:15:41;9.20;;;4.65;;
6531;SDS011;3299;42.004;24.868;2023-04-29T08:18:07;7.90;;;4.18;;
6531;SDS011;3299;42.004;24.868;2023-04-29T08:20:32;11.02;;;4.90;;
6531;SDS011;3299;42.004;24.868;2023-04-29T08:22:58;8.02;;;4.20;;
6531;SDS011;3299;42.004;24.868;2023-04-29T08:25:24;7.03;;;4.53;;
6531;SDS011;3299;42.004;24.868;2023-04-29T08:27:51;5.47;;;4.22;;
6531;SDS011;3299;42.004;24.868;2023-04-29T08:30:16;8.32;;;4.63;;
6531;SDS011;3299;42.004;24.868;2023-04-29T08:32:42;6.53;;;4.47;;
6531;SDS011;3299;42.004;24.868;2023-04-29T08:35:07;5.28;;;4.78;;
6531;SDS011;3299;42.004;24.868;2023-04-29T08:37:33;5.65;;;4.15;;
6531;SDS011;3299;42.004;24.868;2023-04-29T08:39:58;6.97;;;4.70;;
6531;SDS011;3299;42.004;24.868;2023-04-29T08:42:34;5.68;;;4.30;;
6531;SDS011;3299;42.004;24.868;2023-04-29T08:45:01;5.97;;;4.32;;
6531;SDS011;3299;42.004;24.868;2023-04-29T08:47:30;10.02;;;4.45;;
6531;SDS011;3299;42.004;24.868;2023-04-29T08:50:05;7.88;;;4.57;;
6531;SDS011;3299;42.004;24.868;2023-04-29T08:52:31;6.70;;;4.05;;
6531;SDS011;3299;42.004;24.868;2023-04-29T08:55:00;4.85;;;4.35;;
6531;SDS011;3299;42.004;24.868;2023-04-29T08:57:29;6.53;;;4.13;;
6531;SDS011;3299;42.004;24.868;2023-04-29T09:00:07;6.05;;;4.00;;
6531;SDS011;3299;42.004;24.868;2023-04-29T09:02:40;7.93;;;4.32;;
6531;SDS011;3299;42.004;24.868;2023-04-29T09:05:10;7.68;;;4.07;;
6531;SDS011;3299;42.004;24.868;2023-04-29T09:07:36;7.63;;;4.78;;
6531;SDS011;3299;42.004;24.868;2023-04-29T09:10:03;6.03;;;4.10;;
6531;SDS011;3299;42.004;24.868;2023-04-29T09:12:29;5.28;;;3.97;;
6531;SDS011;3299;42.004;24.868;2023-04-29T09:14:55;5.82;;;3.72;;
6531;SDS011;3299;42.004;24.868;2023-04-29T09:22:47;6.63;;;4.43;;
6531;SDS011;3299;42.004;24.868;2023-04-29T09:25:16;5.32;;;4.32;;
6531;SDS011;3299;42.004;24.868;2023-04-29T09:27:41;3.90;;;3.47;;
6531;SDS011;3299;42.004;24.868;2023-04-29T09:30:07;3.80;;;3.40;;
6531;SDS011;3299;42.004;24.868;2023-04-29T09:32:33;4.65;;;4.05;;
6531;SDS011;3299;42.004;24.868;2023-04-29T09:35:15;8.23;;;4.25;;
6531;SDS011;3299;42.004;24.868;2023-04-29T09:37:51;5.18;;;3.35;;
6531;SDS011;3299;42.004;24.868;2023-04-29T09:40:33;5.13;;;4.00;;
6531;SDS011;3299;42.004;24.868;2023-04-29T09:42:59;3.00;;;2.80;;
6531;SDS011;3299;42.004;24.868;2023-04-29T09:45:31;3.72;;;2.70;;
6531;SDS011;3299;42.004;24.868;2023-04-29T09:48:06;4.07;;;3.33;;
6531;SDS011;3299;42.004;24.868;2023-04-29T09:50:33;6.15;;;3.05;;
6531;SDS011;3299;42.004;24.868;2023-04-29T09:53:02;6.38;;;3.30;;
6531;SDS011;3299;42.004;24.868;2023-04-29T09:55:28;6.25;;;3.10;;
6531;SDS011;3299;42.004;24.868;2023-04-29T09:57:55;3.85;;;2.80;;
6531;SDS011;3299;42.004;24.868;2023-04-29T10:00:21;3.70;;;2.92;;
6531;SDS011;3299;42.004;24.868;2023-04-29T10:02:47;6.43;;;3.35;;
6531;SDS011;3299;42.004;24.868;2023-04-29T10:05:16;3.58;;;3.03;;
6531;SDS011;3299;42.004;24.868;2023-04-29T10:07:42;4.63;;;3.00;;
6531;SDS011;3299;42.004;24.868;2023-04-29T10:10:10;3.30;;;2.88;;
6531;SDS011;3299;42.004;24.868;2023-04-29T10:12:38;4.10;;;3.00;;
6531;SDS011;3299;42.004;24.868;2023-04-29T10:15:22;3.60;;;3.30;;
6531;SDS011;3299;42.004;24.868;2023-04-29T10:17:55;3.45;;;2.70;;
6531;SDS011;3299;42.004;24.868;2023-04-29T10:20:27;2.83;;;2.50;;
6531;SDS011;3299;42.004;24.868;2023-04-29T10:22:53;3.03;;;2.50;;
6531;SDS011;3299;42.004;24.868;2023-04-29T10:25:21;4.82;;;3.08;;
6531;SDS011;3299;42.004;24.868;2023-04-29T10:27:48;4.03;;;2.75;;
6531;SDS011;3299;42.004;24.868;2023-04-29T10:30:17;4.30;;;2.83;;
6531;SDS011;3299;42.004;24.868;2023-04-29T10:32:44;2.90;;;2.20;;
6531;SDS011;3299;42.004;24.868;2023-04-29T10:35:12;2.60;;;2.40;;
6531;SDS011;3299;42.004;24.868;2023-04-29T10:37:39;5.43;;;2.78;;
6531;SDS011;3299;42.004;24.868;2023-04-29T10:40:22;3.92;;;2.95;;
6531;SDS011;3299;42.004;24.868;2023-04-29T10:42:52;4.18;;;2.50;;
6531;SDS011;3299;42.004;24.868;2023-04-29T10:50:29;2.45;;;2.25;;
6531;SDS011;3299;42.004;24.868;2023-04-29T10:52:55;5.30;;;2.80;;
6531;SDS011;3299;42.004;24.868;2023-04-29T10:55:22;5.10;;;2.15;;
6531;SDS011;3299;42.004;24.868;2023-04-29T10:57:47;3.03;;;2.30;;
6531;SDS011;3299;42.004;24.868;2023-04-29T11:00:26;2.70;;;2.22;;
6531;SDS011;3299;42.004;24.868;2023-04-29T11:02:53;3.70;;;2.17;;
6531;SDS011;3299;42.004;24.868;2023-04-29T11:05:32;6.10;;;3.05;;
6531;SDS011;3299;42.004;24.868;2023-04-29T11:10:53;3.67;;;2.70;;
6531;SDS011;3299;42.004;24.868;2023-04-29T11:13:29;5.10;;;2.60;;
6531;SDS011;3299;42.004;24.868;2023-04-29T11:16:05;6.38;;;2.60;;
6531;SDS011;3299;42.004;24.868;2023-04-29T11:18:32;2.40;;;2.15;;
6531;SDS011;3299;42.004;24.868;2023-04-29T11:21:19;3.35;;;2.08;;
6531;SDS011;3299;42.004;24.868;2023-04-29T11:23:44;6.05;;;2.30;;
6531;SDS011;3299;42.004;24.868;2023-04-29T11:26:11;2.55;;;2.05;;
6531;SDS011;3299;42.004;24.868;2023-04-29T11:28:37;4.25;;;2.45;;
6531;SDS011;3299;42.004;24.868;2023-04-29T11:31:06;3.67;;;2.75;;
6531;SDS011;3299;42.004;24.868;2023-04-29T11:33:31;3.30;;;1.77;;
6531;SDS011;3299;42.004;24.868;2023-04-29T11:35:58;7.35;;;2.67;;
6531;SDS011;3299;42.004;24.868;2023-04-29T11:38:27;5.38;;;2.70;;
6531;SDS011;3299;42.004;24.868;2023-04-29T11:40:54;5.22;;;2.63;;
6531;SDS011;3299;42.004;24.868;2023-04-29T11:43:21;6.10;;;2.25;;
6531;SDS011;3299;42.004;24.868;2023-04-29T11:45:47;3.00;;;1.83;;
6531;SDS011;3299;42.004;24.868;2023-04-29T11:48:21;3.38;;;2.22;;
6531;SDS011;3299;42.004;24.868;2023-04-29T11:50:52;3.30;;;2.00;;
6531;SDS011;3299;42.004;24.868;2023-04-29T11:53:26;3.58;;;2.15;;
6531;SDS011;3299;42.004;24.868;2023-04-29T11:56:11;6.57;;;2.90;;
6531;SDS011;3299;42.004;24.868;2023-04-29T11:58:37;3.83;;;2.22;;
6531;SDS011;3299;42.004;24.868;2023-04-29T12:01:03;3.08;;;2.20;;
6531;SDS011;3299;42.004;24.868;2023-04-29T12:03:31;6.05;;;2.40;;
6531;SDS011;3299;42.004;24.868;2023-04-29T12:05:57;2.50;;;2.30;;
6531;SDS011;3299;42.004;24.868;2023-04-29T12:08:27;5.22;;;2.15;;
6531;SDS011;3299;42.004;24.868;2023-04-29T12:10:54;5.30;;;2.40;;
6531;SDS011;3299;42.004;24.868;2023-04-29T12:13:25;2.50;;;2.30;;
6531;SDS011;3299;42.004;24.868;2023-04-29T12:15:52;3.10;;;2.30;;
6531;SDS011;3299;42.004;24.868;2023-04-29T12:18:19;2.10;;;1.90;;
6531;SDS011;3299;42.004;24.868;2023-04-29T12:20:47;12.02;;;9.18;;
6531;SDS011;3299;42.004;24.868;2023-04-29T12:23:16;7.40;;;2.55;;
6531;SDS011;3299;42.004;24.868;2023-04-29T12:25:56;4.55;;;2.50;;
6531;SDS011;3299;42.004;24.868;2023-04-29T12:28:24;4.63;;;2.65;;
6531;SDS011;3299;42.004;24.868;2023-04-29T12:30:52;2.47;;;2.17;;
6531;SDS011;3299;42.004;24.868;2023-04-29T12:33:22;3.22;;;2.20;;
6531;SDS011;3299;42.004;24.868;2023-04-29T12:35:50;4.80;;;2.13;;
6531;SDS011;3299;42.004;24.868;2023-04-29T12:38:22;2.45;;;1.85;;
6531;SDS011;3299;42.004;24.868;2023-04-29T12:40:51;2.88;;;2.20;;
6531;SDS011;3299;42.004;24.868;2023-04-29T12:43:30;4.97;;;2.17;;
6531;SDS011;3299;42.004;24.868;2023-04-29T12:46:03;3.78;;;2.47;;
6531;SDS011;3299;42.004;24.868;2023-04-29T12:48:30;2.20;;;2.00;;
6531;SDS011;3299;42.004;24.868;2023-04-29T12:50:56;3.17;;;1.83;;
6531;SDS011;3299;42.004;24.868;2023-04-29T12:53:24;3.17;;;1.88;;
6531;SDS011;3299;42.004;24.868;2023-04-29T12:55:50;2.38;;;1.80;;
6531;SDS011;3299;42.004;24.868;2023-04-29T12:58:16;3.03;;;2.00;;
6531;SDS011;3299;42.004;24.868;2023-04-29T13:00:42;2.25;;;2.05;;
6531;SDS011;3299;42.004;24.868;2023-04-29T13:03:07;4.22;;;2.10;;
6531;SDS011;3299;42.004;24.868;2023-04-29T13:05:33;2.05;;;1.83;;
6531;SDS011;3299;42.004;24.868;2023-04-29T13:07:58;2.53;;;2.10;;
6531;SDS011;3299;42.004;24.868;2023-04-29T13:10:24;3.33;;;2.03;;
6531;SDS011;3299;42.004;24.868;2023-04-29T13:12:49;5.50;;;2.10;;
6531;SDS011;3299;42.004;24.868;2023-04-29T13:15:15;2.90;;;2.00;;
6531;SDS011;3299;42.004;24.868;2023-04-29T13:17:40;2.40;;;1.90;;
6531;SDS011;3299;42.004;24.868;2023-04-29T13:20:06;4.65;;;2.17;;
6531;SDS011;3299;42.004;24.868;2023-04-29T13:22:32;2.70;;;2.13;;
6531;SDS011;3299;42.004;24.868;2023-04-29T13:24:58;3.90;;;1.98;;
6531;SDS011;3299;42.004;24.868;2023-04-29T13:27:23;2.72;;;2.00;;
6531;SDS011;3299;42.004;24.868;2023-04-29T13:29:48;2.60;;;2.40;;
6531;SDS011;3299;42.004;24.868;2023-04-29T13:32:14;3.42;;;2.22;;
6531;SDS011;3299;42.004;24.868;2023-04-29T13:34:40;5.82;;;2.33;;
6531;SDS011;3299;42.004;24.868;2023-04-29T13:37:07;2.30;;;2.03;;
6531;SDS011;3299;42.004;24.868;2023-04-29T13:39:33;4.78;;;1.88;;
6531;SDS011;3299;42.004;24.868;2023-04-29T13:41:59;2.78;;;1.92;;
6531;SDS011;3299;42.004;24.868;2023-04-29T13:44:25;3.83;;;2.30;;
6531;SDS011;3299;42.004;24.868;2023-04-29T13:46:51;23.85;;;10.23;;
6531;SDS011;3299;42.004;24.868;2023-04-29T13:49:16;8.82;;;2.97;;
6531;SDS011;3299;42.004;24.868;2023-04-29T13:51:41;2.50;;;2.28;;
6531;SDS011;3299;42.004;24.868;2023-04-29T13:54:07;3.92;;;2.70;;
6531;SDS011;3299;42.004;24.868;2023-04-29T13:56:32;5.15;;;2.90;;
6531;SDS011;3299;42.004;24.868;2023-04-29T13:58:57;9.27;;;3.50;;
6531;SDS011;3299;42.004;24.868;2023-04-29T14:01:23;6.35;;;2.95;;
6531;SDS011;3299;42.004;24.868;2023-04-29T14:03:48;5.30;;;2.50;;
6531;SDS011;3299;42.004;24.868;2023-04-29T14:06:14;2.78;;;1.85;;
6531;SDS011;3299;42.004;24.868;2023-04-29T14:08:39;2.30;;;2.00;;
6531;SDS011;3299;42.004;24.868;2023-04-29T14:11:05;5.15;;;2.50;;
6531;SDS011;3299;42.004;24.868;2023-04-29T14:13:31;2.97;;;2.50;;
6531;SDS011;3299;42.004;24.868;2023-04-29T14:15:56;3.67;;;2.55;;
6531;SDS011;3299;42.004;24.868;2023-04-29T14:18:23;3.00;;;2.08;;
6531;SDS011;3299;42.004;24.868;2023-04-29T14:20:49;3.75;;;2.17;;
6531;SDS011;3299;42.004;24.868;2023-04-29T14:23:14;2.45;;;2.25;;
6531;SDS011;3299;42.004;24.868;2023-04-29T14:25:39;2.80;;;2.42;;
6531;SDS011;3299;42.004;24.868;2023-04-29T14:28:05;3.40;;;2.05;;
6531;SDS011;3299;42.004;24.868;2023-04-29T14:30:30;4.22;;;1.77;;
6531;SDS011;3299;42.004;24.868;2023-04-29T14:32:56;5.45;;;1.73;;
6531;SDS011;3299;42.004;24.868;2023-04-29T14:35:21;3.92;;;1.92;;
6531;SDS011;3299;42.004;24.868;2023-04-29T14:37:47;5.30;;;2.13;;
6531;SDS011;3299;42.004;24.868;2023-04-29T14:40:12;4.10;;;2.08;;
6531;SDS011;3299;42.004;24.868;2023-04-29T14:42:37;4.43;;;2.20;;
6531;SDS011;3299;42.004;24.868;2023-04-29T14:45:03;3.47;;;1.95;;
6531;SDS011;3299;42.004;24.868;2023-04-29T14:47:29;3.05;;;2.13;;
6531;SDS011;3299;42.004;24.868;2023-04-29T14:49:54;5.15;;;2.10;;
6531;SDS011;3299;42.004;24.868;2023-04-29T14:52:20;4.45;;;1.85;;
6531;SDS011;3299;42.004;24.868;2023-04-29T14:54:45;4.63;;;1.80;;
6531;SDS011;3299;42.004;24.868;2023-04-29T14:57:11;4.75;;;2.08;;
6531;SDS011;3299;42.004;24.868;2023-04-29T14:59:36;4.93;;;2.25;;
6531;SDS011;3299;42.004;24.868;2023-04-29T15:02:02;1.98;;;1.85;;
6531;SDS011;3299;42.004;24.868;2023-04-29T15:04:27;2.17;;;1.98;;
6531;SDS011;3299;42.004;24.868;2023-04-29T15:06:53;2.50;;;1.95;;
6531;SDS011;3299;42.004;24.868;2023-04-29T15:09:18;5.70;;;2.30;;
6531;SDS011;3299;42.004;24.868;2023-04-29T15:11:44;3.15;;;2.08;;
6531;SDS011;3299;42.004;24.868;2023-04-29T15:14:09;10.77;;;2.38;;
6531;SDS011;3299;42.004;24.868;2023-04-29T15:16:34;2.47;;;1.85;;
6531;SDS011;3299;42.004;24.868;2023-04-29T15:19:00;4.97;;;2.20;;
6531;SDS011;3299;42.004;24.868;2023-04-29T15:21:26;3.63;;;1.98;;
6531;SDS011;3299;42.004;24.868;2023-04-29T15:23:51;4.72;;;1.85;;
6531;SDS011;3299;42.004;24.868;2023-04-29T15:26:17;3.17;;;2.20;;
6531;SDS011;3299;42.004;24.868;2023-04-29T15:28:43;2.60;;;2.40;;
6531;SDS011;3299;42.004;24.868;2023-04-29T15:31:10;4.72;;;2.03;;
6531;SDS011;3299;42.004;24.868;2023-04-29T15:33:36;4.82;;;2.00;;